createdAt,value
2022-12-26T00:00:32.447Z,71.94
2022-12-26T00:01:32.368Z,72.04
2022-12-26T00:02:32.715Z,71.97
2022-12-26T00:03:32.444Z,71.97
2022-12-26T00:04:48.721Z,71.97
2022-12-26T00:05:33.323Z,72.04
2022-12-26T00:06:32.329Z,72.08
2022-12-26T00:07:32.324Z,72.04
2022-12-26T00:08:32.314Z,72.17
2022-12-26T00:09:32.295Z,72.28
2022-12-26T00:10:32.285Z,72.24
2022-12-26T00:11:32.273Z,72.28
2022-12-26T00:12:32.259Z,72.24
2022-12-26T00:13:39.500Z,72.14
2022-12-26T00:14:33.249Z,72.14
2022-12-26T00:15:32.282Z,72.14
2022-12-26T00:16:32.248Z,72.14
2022-12-26T00:17:32.216Z,72.14
2022-12-26T00:18:32.235Z,72.24
2022-12-26T00:19:32.220Z,72.14
2022-12-26T00:20:32.157Z,72.24
2022-12-26T00:21:32.184Z,72.24
2022-12-26T00:22:32.190Z,72.34
2022-12-26T00:23:32.156Z,72.34
2022-12-26T00:24:32.119Z,72.34
2022-12-26T00:25:32.129Z,72.44
2022-12-26T00:26:32.107Z,72.44
2022-12-26T00:27:32.114Z,72.44
2022-12-26T00:28:32.125Z,72.44
2022-12-26T00:29:32.095Z,72.55
2022-12-26T00:30:32.074Z,72.55
2022-12-26T00:31:32.114Z,72.55
2022-12-26T00:32:32.064Z,72.65
2022-12-26T00:33:32.020Z,72.55
2022-12-26T00:34:32.039Z,72.65
2022-12-26T00:35:32.033Z,72.65
2022-12-26T00:36:31.997Z,72.65
2022-12-26T00:37:31.989Z,72.65
2022-12-26T00:38:31.998Z,72.65
2022-12-26T00:39:31.989Z,72.65
2022-12-26T00:40:32.001Z,72.65
2022-12-26T00:41:32.019Z,72.75
2022-12-26T00:42:31.926Z,72.65
2022-12-26T00:43:31.931Z,72.65
2022-12-26T00:44:31.897Z,72.65
2022-12-26T00:45:31.930Z,72.65
2022-12-26T00:46:31.988Z,72.65
2022-12-26T00:47:31.887Z,72.65
2022-12-26T00:48:31.892Z,72.65
2022-12-26T00:50:12.631Z,72.65
2022-12-26T00:50:35.011Z,72.75
2022-12-26T00:51:31.845Z,72.65
2022-12-26T00:52:31.840Z,72.65
2022-12-26T00:53:31.824Z,72.65
2022-12-26T00:54:31.828Z,72.75
2022-12-26T00:55:31.817Z,72.75
2022-12-26T00:56:31.840Z,72.65
2022-12-26T00:57:31.812Z,72.65
2022-12-26T00:58:31.782Z,72.65
2022-12-26T00:59:31.769Z,72.75
2022-12-26T01:00:31.845Z,72.75
2022-12-26T01:01:31.849Z,72.75
2022-12-26T01:02:31.862Z,72.75
2022-12-26T01:03:31.751Z,72.75
2022-12-26T01:04:31.761Z,72.65
2022-12-26T01:05:31.672Z,72.65
2022-12-26T01:06:31.666Z,72.65
2022-12-26T01:07:31.753Z,72.65
2022-12-26T01:08:31.683Z,72.65
2022-12-26T01:09:31.696Z,72.65
2022-12-26T01:10:31.649Z,72.65
2022-12-26T01:11:31.650Z,72.55
2022-12-26T01:12:31.631Z,72.65
2022-12-26T01:13:31.619Z,72.65
2022-12-26T01:14:31.605Z,72.65
2022-12-26T01:15:31.583Z,72.65
2022-12-26T01:16:31.634Z,72.65
2022-12-26T01:17:31.594Z,72.65
2022-12-26T01:18:31.557Z,72.75
2022-12-26T01:19:31.535Z,72.75
2022-12-26T01:20:31.519Z,72.65
2022-12-26T01:21:31.531Z,72.65
2022-12-26T01:22:31.508Z,72.55
2022-12-26T01:23:31.578Z,72.65
2022-12-26T01:24:31.498Z,72.55
2022-12-26T01:25:31.478Z,72.65
2022-12-26T01:26:31.462Z,72.55
2022-12-26T01:27:31.512Z,72.65
2022-12-26T01:28:31.455Z,72.75
2022-12-26T01:29:31.519Z,72.75
2022-12-26T01:30:31.429Z,72.65
2022-12-26T01:31:31.447Z,72.75
2022-12-26T01:32:31.476Z,72.75
2022-12-26T01:33:31.405Z,72.75
2022-12-26T01:34:31.422Z,72.75
2022-12-26T01:35:31.385Z,72.72
2022-12-26T01:36:31.369Z,72.72
2022-12-26T01:37:31.405Z,72.72
2022-12-26T01:38:31.327Z,72.72
2022-12-26T01:39:31.326Z,72.75
2022-12-26T01:40:31.350Z,72.75
2022-12-26T01:41:31.319Z,72.75
2022-12-26T01:42:31.320Z,72.85
2022-12-26T01:43:31.260Z,72.75
2022-12-26T01:44:31.260Z,72.75
2022-12-26T01:45:31.350Z,72.85
2022-12-26T01:46:31.233Z,72.85
2022-12-26T01:47:31.224Z,72.85
2022-12-26T01:48:31.225Z,72.92
2022-12-26T01:49:31.218Z,72.81
2022-12-26T01:50:31.221Z,72.85
2022-12-26T01:51:31.203Z,72.81
2022-12-26T01:52:31.191Z,72.81
2022-12-26T01:53:31.164Z,72.81
2022-12-26T01:54:37.337Z,72.81
2022-12-26T01:55:32.175Z,72.81
2022-12-26T01:56:31.157Z,72.81
2022-12-26T01:57:31.119Z,72.81
2022-12-26T01:58:31.127Z,72.81
2022-12-26T01:59:31.111Z,72.81
2022-12-26T02:00:31.139Z,72.85
2022-12-26T02:01:31.201Z,72.81
2022-12-26T02:02:31.203Z,72.81
2022-12-26T02:03:31.111Z,72.81
2022-12-26T02:04:31.128Z,72.72
2022-12-26T02:05:31.127Z,72.81
2022-12-26T02:06:31.007Z,72.81
2022-12-26T02:07:31.178Z,72.81
2022-12-26T02:08:31.042Z,72.72
2022-12-26T02:09:31.030Z,72.81
2022-12-26T02:10:31.004Z,72.72
2022-12-26T02:11:30.971Z,72.81
2022-12-26T02:12:35.918Z,72.72
2022-12-26T02:13:31.948Z,72.81
2022-12-26T02:14:30.964Z,72.81
2022-12-26T02:15:30.936Z,72.81
2022-12-26T02:16:30.983Z,72.81
2022-12-26T02:17:30.934Z,72.81
2022-12-26T02:18:30.921Z,72.81
2022-12-26T02:19:30.906Z,72.81
2022-12-26T02:20:30.880Z,72.81
2022-12-26T02:21:30.865Z,72.81
2022-12-26T02:22:30.995Z,72.81
2022-12-26T02:23:30.913Z,72.81
2022-12-26T02:24:31.085Z,72.81
2022-12-26T02:25:30.819Z,72.81
2022-12-26T02:26:30.851Z,72.92
2022-12-26T02:27:30.808Z,72.81
2022-12-26T02:28:30.780Z,72.81
2022-12-26T02:29:30.800Z,72.81
2022-12-26T02:30:30.758Z,72.72
2022-12-26T02:31:30.805Z,72.72
2022-12-26T02:32:30.744Z,72.72
2022-12-26T02:33:30.767Z,72.72
2022-12-26T02:34:30.741Z,72.72
2022-12-26T02:35:30.953Z,72.72
2022-12-26T02:36:30.682Z,72.72
2022-12-26T02:37:30.703Z,72.72
2022-12-26T02:38:30.685Z,72.72
2022-12-26T02:39:45.274Z,72.72
2022-12-26T02:40:31.683Z,72.72
2022-12-26T02:41:30.646Z,72.72
2022-12-26T02:42:30.639Z,72.72
2022-12-26T02:43:30.700Z,72.61
2022-12-26T02:44:30.635Z,72.61
2022-12-26T02:45:30.664Z,72.61
2022-12-26T02:46:30.640Z,72.72
2022-12-26T02:47:30.590Z,72.61
2022-12-26T02:48:32.241Z,72.61
2022-12-26T02:49:30.579Z,72.61
2022-12-26T02:50:30.558Z,72.61
2022-12-26T02:51:30.636Z,72.61
2022-12-26T02:52:30.523Z,72.61
2022-12-26T02:53:30.518Z,72.61
2022-12-26T02:54:30.523Z,72.61
2022-12-26T02:55:30.513Z,72.61
2022-12-26T02:56:30.503Z,72.65
2022-12-26T02:57:30.504Z,72.65
2022-12-26T02:58:30.579Z,72.65
2022-12-26T02:59:54.608Z,72.65
2022-12-26T03:00:31.454Z,72.65
2022-12-26T03:01:30.614Z,72.75
2022-12-26T03:02:30.685Z,72.75
2022-12-26T03:03:30.510Z,72.75
2022-12-26T03:04:30.404Z,72.75
2022-12-26T03:05:30.393Z,72.75
2022-12-26T03:06:30.399Z,72.75
2022-12-26T03:07:30.413Z,72.75
2022-12-26T03:08:30.357Z,72.75
2022-12-26T03:09:30.330Z,72.75
2022-12-26T03:10:30.415Z,72.75
2022-12-26T03:11:30.326Z,72.75
2022-12-26T03:12:30.329Z,72.75
2022-12-26T03:13:30.294Z,72.75
2022-12-26T03:14:30.320Z,72.75
2022-12-26T03:15:30.295Z,72.75
2022-12-26T03:16:30.319Z,72.75
2022-12-26T03:17:30.256Z,72.75
2022-12-26T03:18:57.205Z,72.75
2022-12-26T03:19:31.260Z,72.75
2022-12-26T03:20:30.237Z,72.78
2022-12-26T03:21:30.222Z,72.75
2022-12-26T03:22:30.202Z,72.65
2022-12-26T03:23:30.219Z,72.78
2022-12-26T03:24:30.198Z,72.68
2022-12-26T03:25:30.165Z,72.68
2022-12-26T03:26:30.160Z,72.65
2022-12-26T03:27:30.132Z,72.68
2022-12-26T03:28:30.143Z,72.68
2022-12-26T03:29:30.182Z,72.65
2022-12-26T03:30:30.413Z,72.68
2022-12-26T03:31:30.127Z,72.68
2022-12-26T03:32:30.099Z,72.68
2022-12-26T03:33:30.094Z,72.68
2022-12-26T03:34:30.123Z,72.58
2022-12-26T03:35:30.093Z,72.58
2022-12-26T03:36:30.099Z,72.58
2022-12-26T03:37:47.592Z,72.58
2022-12-26T03:38:31.014Z,72.58
2022-12-26T03:39:30.066Z,72.58
2022-12-26T03:40:30.107Z,72.58
2022-12-26T03:41:30.071Z,72.58
2022-12-26T03:42:30.140Z,72.58
2022-12-26T03:43:30.025Z,72.58
2022-12-26T03:44:29.949Z,72.58
2022-12-26T03:45:29.993Z,72.48
2022-12-26T03:46:30.081Z,72.48
2022-12-26T03:47:29.939Z,72.48
2022-12-26T03:48:29.936Z,72.48
2022-12-26T03:49:29.934Z,72.48
2022-12-26T03:50:29.880Z,72.48
2022-12-26T03:51:30.090Z,72.48
2022-12-26T03:52:29.918Z,72.48
2022-12-26T03:53:29.863Z,72.48
2022-12-26T03:54:29.863Z,72.48
2022-12-26T03:55:29.831Z,72.48
2022-12-26T03:56:32.601Z,72.38
2022-12-26T03:57:29.820Z,72.38
2022-12-26T03:58:29.830Z,72.38
2022-12-26T03:59:29.859Z,72.48
2022-12-26T04:00:29.838Z,72.48
2022-12-26T04:01:29.870Z,72.48
2022-12-26T04:02:30.109Z,72.48
2022-12-26T04:03:29.810Z,72.48
2022-12-26T04:04:29.739Z,72.48
2022-12-26T04:05:29.747Z,72.48
2022-12-26T04:06:29.759Z,72.48
2022-12-26T04:07:29.750Z,72.48
2022-12-26T04:08:29.717Z,72.38
2022-12-26T04:09:29.706Z,72.38
2022-12-26T04:10:29.683Z,72.38
2022-12-26T04:11:29.712Z,72.38
2022-12-26T04:12:29.714Z,72.38
2022-12-26T04:13:30.121Z,72.38
2022-12-26T04:14:29.700Z,72.38
2022-12-26T04:15:29.684Z,72.38
2022-12-26T04:16:29.602Z,72.38
2022-12-26T04:17:29.597Z,72.38
2022-12-26T04:18:29.588Z,72.38
2022-12-26T04:19:29.578Z,72.38
2022-12-26T04:20:29.573Z,72.38
2022-12-26T04:21:29.572Z,72.38
2022-12-26T04:22:29.590Z,72.38
2022-12-26T04:23:29.555Z,72.38
2022-12-26T04:24:29.534Z,72.38
2022-12-26T04:25:49.849Z,72.38
2022-12-26T04:26:30.514Z,72.38
2022-12-26T04:27:29.513Z,72.38
2022-12-26T04:28:29.502Z,72.28
2022-12-26T04:29:29.491Z,72.28
2022-12-26T04:30:29.471Z,72.28
2022-12-26T04:31:29.483Z,72.28
2022-12-26T04:32:29.449Z,72.28
2022-12-26T04:33:29.477Z,72.28
2022-12-26T04:34:29.432Z,72.28
2022-12-26T04:35:29.409Z,72.28
2022-12-26T04:36:29.411Z,72.28
2022-12-26T04:37:29.386Z,72.28
2022-12-26T04:38:29.394Z,72.28
2022-12-26T04:39:29.410Z,72.28
2022-12-26T04:40:29.349Z,72.28
2022-12-26T04:41:29.356Z,72.28
2022-12-26T04:42:29.355Z,72.28
2022-12-26T04:43:46.583Z,72.28
2022-12-26T04:44:30.313Z,72.28
2022-12-26T04:45:29.316Z,72.17
2022-12-26T04:46:29.335Z,72.17
2022-12-26T04:47:29.281Z,72.17
2022-12-26T04:48:29.251Z,72.17
2022-12-26T04:49:29.262Z,72.17
2022-12-26T04:50:29.263Z,72.17
2022-12-26T04:51:29.224Z,72.17
2022-12-26T04:52:29.225Z,72.17
2022-12-26T04:53:29.217Z,72.17
2022-12-26T04:54:29.221Z,72.17
2022-12-26T04:55:29.197Z,72.17
2022-12-26T04:56:29.176Z,72.17
2022-12-26T04:57:29.195Z,72.17
2022-12-26T04:58:29.157Z,72.17
2022-12-26T04:59:29.177Z,72.17
2022-12-26T05:00:29.195Z,72.17
2022-12-26T05:01:29.315Z,72.08
2022-12-26T05:02:29.301Z,72.17
2022-12-26T05:03:29.219Z,72.17
2022-12-26T05:04:29.095Z,72.17
2022-12-26T05:05:29.110Z,72.17
2022-12-26T05:06:29.072Z,72.17
2022-12-26T05:07:29.118Z,72.17
2022-12-26T05:08:29.043Z,72.17
2022-12-26T05:09:29.048Z,72.17
2022-12-26T05:10:29.036Z,72.17
2022-12-26T05:11:29.023Z,72.17
2022-12-26T05:12:29.021Z,72.17
2022-12-26T05:13:29.007Z,72.17
2022-12-26T05:14:29.013Z,72.17
2022-12-26T05:15:29.001Z,72.17
2022-12-26T05:16:29.015Z,72.17
2022-12-26T05:17:28.995Z,72.17
2022-12-26T05:18:28.935Z,72.17
2022-12-26T05:19:28.933Z,72.17
2022-12-26T05:20:28.927Z,72.17
2022-12-26T05:21:28.913Z,72.17
2022-12-26T05:22:28.927Z,72.17
2022-12-26T05:23:28.882Z,72.17
2022-12-26T05:24:28.891Z,72.17
2022-12-26T05:25:28.874Z,72.17
2022-12-26T05:26:28.849Z,72.17
2022-12-26T05:27:28.859Z,72.08
2022-12-26T05:28:28.852Z,72.08
2022-12-26T05:29:28.828Z,72.17
2022-12-26T05:30:28.828Z,72.08
2022-12-26T05:31:34.922Z,72.08
2022-12-26T05:32:29.810Z,72.08
2022-12-26T05:33:28.791Z,72.08
2022-12-26T05:34:28.771Z,72.08
2022-12-26T05:35:28.789Z,72.08
2022-12-26T05:36:28.785Z,72.04
2022-12-26T05:37:28.753Z,72.04
2022-12-26T05:38:28.732Z,72.04
2022-12-26T05:39:28.750Z,72.04
2022-12-26T05:40:28.710Z,72.04
2022-12-26T05:41:28.702Z,72.04
2022-12-26T05:42:28.704Z,72.04
2022-12-26T05:43:28.693Z,72.04
2022-12-26T05:44:28.681Z,72.04
2022-12-26T05:45:28.645Z,72.04
2022-12-26T05:46:28.686Z,72.04
2022-12-26T05:47:28.653Z,72.04
2022-12-26T05:48:28.625Z,72.04
2022-12-26T05:49:28.612Z,72.04
2022-12-26T05:50:28.589Z,72.04
2022-12-26T05:51:28.586Z,72.04
2022-12-26T05:52:28.578Z,72.04
2022-12-26T05:53:28.575Z,72.04
2022-12-26T05:54:28.563Z,72.04
2022-12-26T05:55:28.563Z,72.04
2022-12-26T06:00:11.823Z,72.14
2022-12-26T06:01:11.865Z,72.14
2022-12-26T06:02:12.560Z,72.14
2022-12-26T06:03:11.930Z,72.14
2022-12-26T06:04:11.777Z,72.14
2022-12-26T06:05:11.764Z,72.14
2022-12-26T06:06:11.793Z,72.14
2022-12-26T06:07:11.747Z,72.17
2022-12-26T06:08:11.745Z,72.17
2022-12-26T06:09:11.718Z,72.17
2022-12-26T06:10:11.726Z,72.14
2022-12-26T06:11:11.746Z,72.17
2022-12-26T06:12:11.690Z,72.17
2022-12-26T06:13:11.699Z,72.17
2022-12-26T06:14:11.675Z,72.17
2022-12-26T06:15:11.640Z,72.17
2022-12-26T06:16:11.685Z,72.17
2022-12-26T06:17:11.672Z,72.17
2022-12-26T06:18:11.620Z,72.17
2022-12-26T06:19:11.599Z,72.28
2022-12-26T06:20:11.598Z,72.17
2022-12-26T06:21:11.563Z,72.17
2022-12-26T06:22:11.582Z,72.17
2022-12-26T06:23:11.558Z,72.17
2022-12-26T06:24:11.558Z,72.17
2022-12-26T06:25:11.562Z,72.17
2022-12-26T06:26:11.540Z,72.17
2022-12-26T06:27:11.528Z,72.17
2022-12-26T06:28:11.522Z,72.17
2022-12-26T06:29:11.507Z,72.17
2022-12-26T06:30:11.520Z,72.17
2022-12-26T06:31:11.553Z,72.17
2022-12-26T06:32:11.455Z,72.17
2022-12-26T06:33:11.472Z,72.17
2022-12-26T06:34:11.422Z,72.17
2022-12-26T06:35:11.427Z,72.17
2022-12-26T06:36:11.461Z,72.17
2022-12-26T06:37:11.445Z,72.17
2022-12-26T06:38:11.399Z,72.17
2022-12-26T06:39:11.400Z,72.17
2022-12-26T06:40:11.393Z,72.17
2022-12-26T06:41:11.481Z,72.17
2022-12-26T06:42:11.366Z,72.17
2022-12-26T06:43:11.405Z,72.17
2022-12-26T06:44:17.791Z,72.17
2022-12-26T06:45:12.320Z,72.17
2022-12-26T06:46:11.316Z,72.17
2022-12-26T06:47:11.381Z,72.17
2022-12-26T06:48:11.308Z,72.17
2022-12-26T06:49:11.280Z,72.17
2022-12-26T06:50:11.292Z,72.17
2022-12-26T06:51:11.252Z,72.17
2022-12-26T06:52:11.234Z,72.17
2022-12-26T06:53:11.235Z,72.17
2022-12-26T06:54:11.232Z,72.17
2022-12-26T06:55:11.239Z,72.17
2022-12-26T06:56:11.252Z,72.17
2022-12-26T06:57:11.208Z,72.17
2022-12-26T06:58:11.189Z,72.17
2022-12-26T06:59:11.175Z,72.17
2022-12-26T07:00:11.170Z,72.17
2022-12-26T07:01:11.308Z,72.17
2022-12-26T07:02:11.234Z,72.17
2022-12-26T07:03:11.157Z,72.17
2022-12-26T07:04:11.112Z,72.17
2022-12-26T07:05:11.124Z,72.17
2022-12-26T07:06:11.088Z,72.17
2022-12-26T07:07:11.115Z,72.17
2022-12-26T07:08:11.089Z,72.17
2022-12-26T07:09:11.081Z,72.17
2022-12-26T07:10:11.045Z,72.08
2022-12-26T07:11:11.046Z,72.08
2022-12-26T07:12:11.022Z,72.08
2022-12-26T07:13:11.026Z,72.08
2022-12-26T07:14:11.004Z,72.08
2022-12-26T07:15:11.015Z,72.08
2022-12-26T07:16:11.037Z,72.08
2022-12-26T07:17:10.974Z,72.08
2022-12-26T07:18:10.988Z,72.08
2022-12-26T07:19:10.985Z,72.08
2022-12-26T07:20:10.931Z,72.08
2022-12-26T07:21:10.919Z,72.08
2022-12-26T07:22:10.929Z,72.08
2022-12-26T07:23:10.921Z,72.08
2022-12-26T07:24:10.904Z,72.08
2022-12-26T07:25:10.885Z,72.08
2022-12-26T07:26:10.875Z,72.08
2022-12-26T07:27:10.862Z,72.08
2022-12-26T07:28:10.888Z,72.08
2022-12-26T07:29:10.863Z,72.08
2022-12-26T07:30:10.848Z,72.08
2022-12-26T07:31:10.963Z,72.08
2022-12-26T07:32:10.943Z,72.08
2022-12-26T07:33:10.814Z,72.08
2022-12-26T07:34:10.803Z,72.08
2022-12-26T07:35:10.802Z,72.08
2022-12-26T07:36:10.775Z,72.08
2022-12-26T07:37:10.774Z,72.08
2022-12-26T07:38:10.748Z,72.08
2022-12-26T07:39:10.745Z,72.08
2022-12-26T07:40:10.731Z,72.08
2022-12-26T07:41:10.722Z,72.08
2022-12-26T07:42:10.687Z,72.08
2022-12-26T07:43:10.698Z,72.08
2022-12-26T07:44:10.680Z,71.97
2022-12-26T07:45:10.658Z,72.08
2022-12-26T07:46:10.720Z,71.97
2022-12-26T07:47:10.637Z,71.97
2022-12-26T07:48:10.629Z,71.97
2022-12-26T07:49:10.651Z,71.97
2022-12-26T07:50:10.628Z,71.97
2022-12-26T07:51:10.609Z,71.97
2022-12-26T07:52:10.622Z,71.97
2022-12-26T07:53:10.633Z,71.97
2022-12-26T07:54:11.688Z,71.97
2022-12-26T07:55:10.572Z,71.97
2022-12-26T07:56:10.565Z,71.97
2022-12-26T07:57:46.166Z,71.97
2022-12-26T07:58:11.534Z,71.97
2022-12-26T07:59:10.531Z,72.08
2022-12-26T08:00:10.515Z,72.08
2022-12-26T08:01:10.622Z,72.08
2022-12-26T08:02:10.665Z,72.08
2022-12-26T08:03:10.619Z,72.08
2022-12-26T08:04:10.453Z,72.08
2022-12-26T08:05:10.450Z,72.08
2022-12-26T08:06:10.434Z,72.08
2022-12-26T08:07:10.456Z,72.08
2022-12-26T08:08:10.438Z,72.08
2022-12-26T08:09:10.497Z,72.08
2022-12-26T08:10:10.584Z,72.08
2022-12-26T08:11:10.395Z,72.08
2022-12-26T08:12:10.399Z,72.08
2022-12-26T08:13:10.402Z,72.08
2022-12-26T08:14:10.354Z,72.08
2022-12-26T08:15:10.376Z,72.08
2022-12-26T08:16:10.411Z,72.08
2022-12-26T08:17:10.361Z,72.08
2022-12-26T08:18:10.319Z,72.08
2022-12-26T08:19:10.323Z,72.08
2022-12-26T08:20:10.334Z,72.08
2022-12-26T08:21:10.346Z,72.08
2022-12-26T08:22:10.271Z,72.08
2022-12-26T08:23:10.269Z,72.08
2022-12-26T08:24:10.267Z,71.97
2022-12-26T08:25:10.253Z,72.08
2022-12-26T08:26:10.249Z,72.08
2022-12-26T08:27:10.232Z,72.08
2022-12-26T08:28:10.211Z,71.97
2022-12-26T08:29:10.202Z,71.97
2022-12-26T08:30:10.233Z,72.08
2022-12-26T08:31:10.194Z,71.97
2022-12-26T08:32:10.171Z,71.97
2022-12-26T08:33:10.162Z,71.97
2022-12-26T08:34:10.200Z,71.97
2022-12-26T08:35:10.159Z,71.97
2022-12-26T08:36:10.122Z,71.97
2022-12-26T08:37:10.146Z,71.97
2022-12-26T08:38:10.101Z,71.97
2022-12-26T08:39:10.108Z,71.97
2022-12-26T08:40:10.115Z,71.97
2022-12-26T08:41:10.091Z,71.97
2022-12-26T08:42:10.059Z,71.97
2022-12-26T08:43:32.108Z,71.97
2022-12-26T08:44:27.921Z,71.97
2022-12-26T08:45:11.023Z,71.97
2022-12-26T08:46:10.041Z,71.97
2022-12-26T08:47:10.032Z,71.97
2022-12-26T08:48:10.035Z,71.97
2022-12-26T08:49:09.969Z,71.97
2022-12-26T08:50:09.976Z,71.97
2022-12-26T08:51:09.948Z,71.97
2022-12-26T08:52:09.956Z,71.97
2022-12-26T08:53:09.930Z,71.97
2022-12-26T08:54:09.930Z,71.97
2022-12-26T08:55:09.908Z,71.97
2022-12-26T08:56:09.922Z,71.97
2022-12-26T08:57:10.118Z,71.88
2022-12-26T08:58:09.940Z,71.84
2022-12-26T08:59:09.919Z,71.88
2022-12-26T09:00:09.851Z,71.84
2022-12-26T09:01:10.040Z,71.84
2022-12-26T09:02:10.077Z,71.84
2022-12-26T09:03:09.837Z,71.84
2022-12-26T09:04:09.817Z,71.84
2022-12-26T09:05:09.828Z,71.84
2022-12-26T09:06:09.789Z,71.84
2022-12-26T09:07:09.813Z,71.84
2022-12-26T09:08:09.779Z,71.84
2022-12-26T09:09:09.808Z,71.84
2022-12-26T09:10:09.761Z,71.84
2022-12-26T09:11:09.764Z,71.84
2022-12-26T09:12:09.741Z,71.84
2022-12-26T09:13:09.733Z,71.84
2022-12-26T09:14:09.748Z,71.84
2022-12-26T09:15:09.707Z,71.84
2022-12-26T09:16:09.694Z,71.84
2022-12-26T09:17:09.683Z,71.84
2022-12-26T09:18:09.667Z,71.84
2022-12-26T09:19:09.694Z,71.84
2022-12-26T09:20:09.648Z,71.84
2022-12-26T09:21:09.654Z,71.84
2022-12-26T09:22:09.631Z,71.84
2022-12-26T09:23:09.627Z,71.84
2022-12-26T09:24:09.619Z,71.94
2022-12-26T09:25:09.598Z,71.94
2022-12-26T09:26:09.575Z,71.84
2022-12-26T09:27:09.585Z,71.84
2022-12-26T09:28:09.599Z,71.84
2022-12-26T09:29:09.548Z,71.84
2022-12-26T09:30:09.580Z,71.94
2022-12-26T09:31:09.530Z,71.84
2022-12-26T09:32:09.509Z,71.84
2022-12-26T09:33:09.515Z,71.84
2022-12-26T09:34:09.531Z,71.84
2022-12-26T09:35:09.492Z,71.84
2022-12-26T09:36:14.278Z,71.84
2022-12-26T09:37:10.486Z,71.84
2022-12-26T09:38:09.435Z,71.84
2022-12-26T09:39:09.464Z,71.84
2022-12-26T09:40:09.439Z,71.84
2022-12-26T09:41:09.426Z,71.84
2022-12-26T09:42:09.409Z,71.84
2022-12-26T09:43:09.403Z,71.84
2022-12-26T09:44:09.459Z,71.84
2022-12-26T09:45:09.374Z,71.84
2022-12-26T09:46:09.420Z,71.84
2022-12-26T09:47:09.380Z,71.84
2022-12-26T09:48:09.357Z,71.94
2022-12-26T09:49:09.325Z,71.94
2022-12-26T09:50:09.324Z,71.94
2022-12-26T09:51:09.320Z,71.94
2022-12-26T09:52:09.315Z,71.94
2022-12-26T09:53:09.298Z,71.94
2022-12-26T09:54:09.289Z,71.94
2022-12-26T09:55:09.278Z,71.94
2022-12-26T09:56:18.413Z,71.94
2022-12-26T09:57:14.876Z,71.94
2022-12-26T09:58:10.240Z,71.94
2022-12-26T09:59:09.224Z,71.94
2022-12-26T10:00:09.247Z,71.94
2022-12-26T10:01:09.322Z,71.94
2022-12-26T10:02:09.256Z,71.94
2022-12-26T10:03:09.180Z,71.94
2022-12-26T10:04:09.190Z,72.04
2022-12-26T10:05:09.193Z,72.04
2022-12-26T10:06:09.183Z,72.04
2022-12-26T10:07:09.194Z,71.94
2022-12-26T10:08:09.119Z,72.04
2022-12-26T10:09:09.121Z,72.04
2022-12-26T10:10:09.120Z,72.04
2022-12-26T10:11:09.090Z,72.04
2022-12-26T10:12:09.202Z,72.04
2022-12-26T10:13:09.079Z,72.04
2022-12-26T10:14:09.080Z,72.04
2022-12-26T10:15:09.065Z,72.04
2022-12-26T10:16:09.128Z,72.04
2022-12-26T10:17:09.029Z,72.04
2022-12-26T10:18:09.052Z,72.04
2022-12-26T10:19:09.056Z,72.04
2022-12-26T10:20:09.015Z,72.04
2022-12-26T10:21:09.064Z,72.04
2022-12-26T10:22:09.017Z,72.04
2022-12-26T10:23:08.956Z,72.04
2022-12-26T10:24:08.973Z,72.04
2022-12-26T10:25:08.953Z,72.04
2022-12-26T10:26:08.954Z,72.04
2022-12-26T10:27:08.966Z,72.04
2022-12-26T10:28:08.930Z,72.04
2022-12-26T10:29:09.767Z,72.04
2022-12-26T10:30:08.869Z,72.04
2022-12-26T10:31:08.942Z,72.04
2022-12-26T10:32:08.887Z,72.04
2022-12-26T10:33:08.901Z,72.04
2022-12-26T10:34:08.883Z,72.14
2022-12-26T10:35:09.345Z,72.04
2022-12-26T10:36:08.838Z,72.04
2022-12-26T10:37:08.836Z,72.04
2022-12-26T10:38:08.810Z,72.04
2022-12-26T10:39:08.780Z,72.04
2022-12-26T10:40:08.806Z,72.04
2022-12-26T10:41:08.784Z,72.04
2022-12-26T10:42:08.783Z,72.04
2022-12-26T10:43:08.769Z,72.04
2022-12-26T10:44:08.788Z,72.04
2022-12-26T10:45:08.771Z,72.04
2022-12-26T10:46:08.760Z,72.04
2022-12-26T10:47:08.730Z,72.04
2022-12-26T10:48:08.703Z,72.14
2022-12-26T10:49:08.680Z,72.04
2022-12-26T10:50:08.716Z,72.04
2022-12-26T10:51:08.665Z,72.04
2022-12-26T10:52:08.672Z,72.04
2022-12-26T10:53:08.628Z,72.04
2022-12-26T10:54:08.628Z,72.04
2022-12-26T10:55:28.119Z,72.04
2022-12-26T10:56:14.664Z,72.04
2022-12-26T10:57:09.612Z,72.04
2022-12-26T10:58:08.600Z,72.04
2022-12-26T10:59:08.595Z,72.04
2022-12-26T11:00:08.591Z,72.04
2022-12-26T11:01:08.600Z,72.04
2022-12-26T11:02:08.701Z,72.04
2022-12-26T11:03:08.705Z,72.04
2022-12-26T11:04:08.543Z,72.04
2022-12-26T11:05:22.021Z,72.04
2022-12-26T11:06:09.799Z,72.04
2022-12-26T11:07:08.519Z,72.04
2022-12-26T11:08:08.487Z,72.04
2022-12-26T11:09:08.476Z,72.04
2022-12-26T11:10:08.483Z,72.14
2022-12-26T11:11:08.469Z,73.15
2022-12-26T11:12:08.443Z,74.67
2022-12-26T11:13:08.425Z,75.79
2022-12-26T11:14:08.461Z,76.90
2022-12-26T11:15:08.393Z,77.10
2022-12-26T11:16:08.473Z,77.26
2022-12-26T11:17:08.404Z,77.37
2022-12-26T11:18:08.366Z,77.47
2022-12-26T11:19:08.385Z,77.37
2022-12-26T11:20:08.366Z,77.26
2022-12-26T11:21:12.649Z,77.26
2022-12-26T11:22:08.336Z,77.17
2022-12-26T11:23:08.304Z,77.17
2022-12-26T11:24:08.367Z,77.17
2022-12-26T11:25:08.284Z,77.17
2022-12-26T11:26:08.278Z,77.06
2022-12-26T11:27:12.708Z,77.06
2022-12-26T11:28:08.256Z,76.97
2022-12-26T11:29:08.293Z,76.86
2022-12-26T11:30:08.267Z,76.86
2022-12-26T11:31:08.262Z,76.76
2022-12-26T11:32:08.247Z,76.76
2022-12-26T11:33:13.685Z,76.76
2022-12-26T11:34:09.244Z,76.66
2022-12-26T11:35:08.196Z,76.66
2022-12-26T11:36:08.212Z,76.66
2022-12-26T11:37:08.184Z,76.56
2022-12-26T11:38:08.150Z,76.46
2022-12-26T11:39:08.180Z,76.46
2022-12-26T11:40:08.149Z,76.35
2022-12-26T11:41:08.138Z,76.46
2022-12-26T11:42:08.154Z,76.46
2022-12-26T11:43:08.119Z,76.35
2022-12-26T11:44:08.084Z,76.35
2022-12-26T11:45:08.062Z,76.35
2022-12-26T11:46:08.109Z,76.26
2022-12-26T11:47:08.055Z,76.26
2022-12-26T11:48:08.045Z,76.26
2022-12-26T11:49:08.021Z,76.26
2022-12-26T11:50:08.027Z,76.15
2022-12-26T11:51:08.001Z,76.26
2022-12-26T11:52:08.057Z,76.26
2022-12-26T11:53:07.995Z,76.26
2022-12-26T11:54:07.978Z,76.15
2022-12-26T11:55:07.961Z,76.26
2022-12-26T11:56:07.967Z,76.15
2022-12-26T11:57:07.976Z,76.15
2022-12-26T11:58:07.975Z,76.15
2022-12-26T11:59:07.932Z,76.15
2022-12-26T12:00:07.930Z,76.05
2022-12-26T12:01:07.933Z,76.05
2022-12-26T12:02:08.005Z,76.15
2022-12-26T12:03:07.915Z,76.15
2022-12-26T12:04:07.870Z,76.15
2022-12-26T12:05:07.892Z,76.15
2022-12-26T12:06:07.839Z,76.05
2022-12-26T12:07:07.833Z,76.05
2022-12-26T12:08:07.851Z,76.05
2022-12-26T12:09:07.830Z,76.05
2022-12-26T12:10:07.804Z,76.05
2022-12-26T12:11:07.781Z,76.05
2022-12-26T12:12:07.785Z,76.05
2022-12-26T12:13:07.792Z,76.05
2022-12-26T12:14:07.785Z,76.05
2022-12-26T12:15:07.762Z,76.05
2022-12-26T12:16:07.803Z,75.95
2022-12-26T12:17:07.742Z,76.05
2022-12-26T12:18:07.769Z,75.95
2022-12-26T12:19:07.720Z,75.95
2022-12-26T12:20:07.697Z,75.95
2022-12-26T12:21:07.706Z,75.95
2022-12-26T12:22:07.675Z,75.95
2022-12-26T12:23:07.666Z,75.95
2022-12-26T12:24:07.668Z,75.85
2022-12-26T12:25:07.659Z,75.85
2022-12-26T12:26:07.628Z,75.85
2022-12-26T12:27:07.619Z,75.85
2022-12-26T12:28:07.652Z,75.85
2022-12-26T12:29:07.624Z,75.85
2022-12-26T12:30:07.655Z,75.75
2022-12-26T12:31:07.626Z,75.75
2022-12-26T12:32:07.608Z,75.75
2022-12-26T12:33:07.561Z,75.75
2022-12-26T12:34:07.583Z,75.75
2022-12-26T12:35:07.551Z,75.65
2022-12-26T12:36:07.533Z,75.65
2022-12-26T12:37:07.518Z,75.65
2022-12-26T12:38:07.510Z,75.65
2022-12-26T12:39:07.520Z,75.65
2022-12-26T12:40:07.503Z,75.65
2022-12-26T12:41:07.487Z,75.65
2022-12-26T12:42:07.469Z,75.65
2022-12-26T12:43:07.456Z,75.65
2022-12-26T12:44:07.449Z,75.65
2022-12-26T12:45:07.476Z,75.65
2022-12-26T12:46:07.486Z,75.65
2022-12-26T12:47:07.423Z,75.65
2022-12-26T12:48:07.435Z,75.55
2022-12-26T12:49:07.418Z,75.55
2022-12-26T12:50:07.375Z,75.55
2022-12-26T12:51:07.387Z,75.55
2022-12-26T12:52:07.351Z,75.55
2022-12-26T12:53:07.367Z,75.55
2022-12-26T12:54:07.376Z,75.55
2022-12-26T12:55:07.309Z,75.58
2022-12-26T12:56:07.313Z,75.58